createdAt,value
2023-04-29T00:00:19.609Z,98799.50
2023-04-29T00:02:55.888Z,98800.47
2023-04-29T00:05:28.048Z,98808.44
2023-04-29T00:08:00.096Z,98801.31
2023-04-29T00:10:31.909Z,98795.19
2023-04-29T00:13:03.643Z,98806.97
2023-04-29T00:15:38.030Z,98804.56
2023-04-29T00:18:10.526Z,98807.84
2023-04-29T00:20:47.659Z,98813.56
2023-04-29T00:23:19.969Z,98812.72
2023-04-29T00:25:53.576Z,98806.06
2023-04-29T00:28:28.435Z,98808.31
2023-04-29T00:31:04.719Z,98806.09
2023-04-29T00:33:40.779Z,98805.69
2023-04-29T00:36:12.711Z,98806.50
2023-04-29T00:38:44.563Z,98815.28
2023-04-29T00:41:21.224Z,98820.19
2023-04-29T00:43:53.077Z,98816.34
2023-04-29T00:46:27.940Z,98816.75
2023-04-29T00:49:00.511Z,98817.53
2023-04-29T00:51:33.387Z,98816.94
2023-04-29T00:54:05.765Z,98813.47
2023-04-29T00:56:42.022Z,98814.06
2023-04-29T00:59:15.525Z,98816.94
2023-04-29T01:01:48.226Z,98814.06
2023-04-29T01:04:20.176Z,98819.16
2023-04-29T01:07:17.087Z,98808.38
2023-04-29T01:10:27.180Z,98801.06
2023-04-29T01:13:13.475Z,98794.13
2023-04-29T01:16:02.367Z,98794.31
2023-04-29T01:18:39.346Z,98791.03
2023-04-29T01:21:12.471Z,98791.44
2023-04-29T01:23:47.950Z,98786.50
2023-04-29T01:26:19.754Z,98787.94
2023-04-29T01:29:26.081Z,98790.16
2023-04-29T01:32:14.449Z,98791.94
2023-04-29T01:35:11.552Z,98797.63
2023-04-29T01:37:56.027Z,98794.94
2023-04-29T01:40:46.211Z,98796.53
2023-04-29T01:43:32.832Z,98797.31
2023-04-29T01:46:17.288Z,98796.22
2023-04-29T01:48:52.546Z,98787.50
2023-04-29T01:51:52.726Z,98798.63
2023-04-29T01:54:25.829Z,98788.81
2023-04-29T01:56:58.734Z,98781.91
2023-04-29T01:59:36.494Z,98790.03
2023-04-29T02:02:31.593Z,98789.84
2023-04-29T02:05:13.599Z,98790.47
2023-04-29T02:07:56.432Z,98788.81
2023-04-29T02:10:28.528Z,98789.44
2023-04-29T02:13:13.638Z,98786.63
2023-04-29T02:15:46.483Z,98790.91
2023-04-29T02:18:20.070Z,98782.34
2023-04-29T02:21:00.892Z,98778.84
2023-04-29T02:23:35.963Z,98779.88
2023-04-29T02:26:09.366Z,98775.56
2023-04-29T02:28:41.189Z,98778.22
2023-04-29T02:31:13.729Z,98771.94
2023-04-29T02:33:45.430Z,98780.69
2023-04-29T02:36:18.244Z,98778.84
2023-04-29T02:38:51.481Z,98782.50
2023-04-29T02:41:23.674Z,98791.28
2023-04-29T02:44:00.813Z,98794.28
2023-04-29T02:46:33.663Z,98796.28
2023-04-29T02:49:08.432Z,98809.94
2023-04-29T02:51:41.379Z,98814.69
2023-04-29T02:54:13.583Z,98805.53
2023-04-29T02:56:45.358Z,98797.22
2023-04-29T02:59:17.166Z,98799.91
2023-04-29T03:01:49.163Z,98796.69
2023-04-29T03:04:21.238Z,98794.44
2023-04-29T03:06:54.769Z,98792.44
2023-04-29T03:09:26.732Z,98786.56
2023-04-29T03:11:58.460Z,98785.50
2023-04-29T03:14:30.242Z,98777.97
2023-04-29T03:17:03.209Z,98781.63
2023-04-29T03:19:35.256Z,98776.13
2023-04-29T03:22:08.275Z,98776.13
2023-04-29T03:24:40.520Z,98780.59
2023-04-29T03:27:13.394Z,98775.31
2023-04-29T03:29:46.616Z,98768.19
2023-04-29T03:32:18.586Z,98767.38
2023-04-29T03:34:51.183Z,98772.22
2023-04-29T03:37:53.606Z,98779.34
2023-04-29T03:40:29.237Z,98777.50
2023-04-29T03:43:01.149Z,98779.97
2023-04-29T03:45:33.340Z,98778.78
2023-04-29T03:48:06.300Z,98784.88
2023-04-29T03:50:41.131Z,98775.91
2023-04-29T03:53:15.216Z,98782.84
2023-04-29T03:55:49.959Z,98778.19
2023-04-29T03:58:23.731Z,98775.97
2023-04-29T04:00:57.048Z,98778.25
2023-04-29T04:03:36.216Z,98771.91
2023-04-29T04:06:08.340Z,98773.75
2023-04-29T04:08:41.336Z,98779.66
2023-04-29T04:11:27.735Z,98782.94
2023-04-29T04:14:06.269Z,98768.88
2023-04-29T04:16:43.136Z,98785.53
2023-04-29T04:19:16.438Z,98773.66
2023-04-29T04:21:51.067Z,98774.44
2023-04-29T04:24:23.813Z,98784.34
2023-04-29T04:26:55.853Z,98785.78
2023-04-29T04:29:33.858Z,98789.50
2023-04-29T04:32:15.509Z,98787.91
2023-04-29T04:34:47.300Z,98787.50
2023-04-29T04:37:19.971Z,98783.69
2023-04-29T04:39:56.544Z,98778.19
2023-04-29T04:42:35.849Z,98784.72
2023-04-29T04:45:11.382Z,98785.38
2023-04-29T04:47:55.822Z,98773.75
2023-04-29T04:50:32.631Z,98788.44
2023-04-29T04:53:05.552Z,98782.31
2023-04-29T04:56:03.935Z,98791.09
2023-04-29T04:58:37.033Z,98789.88
2023-04-29T05:01:09.566Z,98792.13
2023-04-29T05:03:41.606Z,98789.25
2023-04-29T05:06:13.879Z,98783.53
2023-04-29T05:08:49.779Z,98790.25
2023-04-29T05:11:23.753Z,98785.59
2023-04-29T05:14:14.772Z,98781.53
2023-04-29T05:16:47.019Z,98779.34
2023-04-29T05:19:22.488Z,98781.75
2023-04-29T05:21:57.676Z,98779.56
2023-04-29T05:24:30.450Z,98779.97
2023-04-29T05:27:23.616Z,98790.81
2023-04-29T05:29:55.865Z,98785.34
2023-04-29T05:32:27.957Z,98786.00
2023-04-29T05:35:04.192Z,98786.66
2023-04-29T05:37:37.265Z,98795.47
2023-04-29T05:40:20.412Z,98792.84
2023-04-29T05:42:53.743Z,98793.47
2023-04-29T05:45:26.603Z,98798.69
2023-04-29T05:48:01.257Z,98794.00
2023-04-29T05:50:35.295Z,98791.78
2023-04-29T05:53:10.064Z,98795.72
2023-04-29T05:55:44.994Z,98802.25
2023-04-29T05:58:18.341Z,98797.16
2023-04-29T06:00:50.122Z,98806.38
2023-04-29T06:03:29.788Z,98811.25
2023-04-29T06:06:28.940Z,98803.91
2023-04-29T06:09:28.213Z,98795.53
2023-04-29T06:12:09.077Z,98798.13
2023-04-29T06:14:40.761Z,98799.72
2023-04-29T06:17:15.178Z,98798.91
2023-04-29T06:19:47.568Z,98807.41
2023-04-29T06:22:19.301Z,98806.69
2023-04-29T06:24:54.966Z,98805.31
2023-04-29T06:27:51.216Z,98804.41
2023-04-29T06:30:27.271Z,98809.34
2023-04-29T06:32:59.941Z,98807.38
2023-04-29T06:35:31.761Z,98799.34
2023-04-29T06:38:38.772Z,98799.53
2023-04-29T06:41:30.457Z,98804.47
2023-04-29T06:44:27.825Z,98795.56
2023-04-29T06:47:29.442Z,98800.03
2023-04-29T06:50:17.784Z,98799.66
2023-04-29T06:52:49.510Z,98784.28
2023-04-29T06:55:21.663Z,98789.09
2023-04-29T06:57:54.180Z,98786.06
2023-04-29T07:00:28.982Z,98778.19
2023-04-29T07:03:03.112Z,98776.94
2023-04-29T07:05:35.080Z,98780.38
2023-04-29T07:08:07.935Z,98785.06
2023-04-29T07:10:40.116Z,98782.09
2023-04-29T07:13:12.135Z,98790.84
2023-04-29T07:15:43.882Z,98788.03
2023-04-29T07:18:15.598Z,98785.66
2023-04-29T07:20:52.943Z,98782.97
2023-04-29T07:23:27.579Z,98786.38
2023-04-29T07:25:59.337Z,98787.81
2023-04-29T07:28:31.111Z,98782.13
2023-04-29T07:31:02.949Z,98788.50
2023-04-29T07:33:35.867Z,98789.31
2023-04-29T07:36:07.964Z,98788.19
2023-04-29T07:38:40.571Z,98787.78
2023-04-29T07:41:12.653Z,98792.41
2023-04-29T07:43:45.664Z,98794.78
2023-04-29T07:46:25.492Z,98798.50
2023-04-29T07:48:58.349Z,98795.50
2023-04-29T07:51:30.082Z,98796.69
2023-04-29T07:54:01.771Z,98806.66
2023-04-29T07:56:33.973Z,98795.38
2023-04-29T07:59:05.678Z,98804.25
2023-04-29T08:01:37.625Z,98796.53
2023-04-29T08:04:09.448Z,98801.09
2023-04-29T08:06:51.075Z,98801.47
2023-04-29T08:09:22.882Z,98803.13
2023-04-29T08:11:54.667Z,98800.94
2023-04-29T08:14:26.747Z,98798.38
2023-04-29T08:16:59.330Z,98799.00
2023-04-29T08:19:34.241Z,98800.06
2023-04-29T08:22:06.520Z,98799.06
2023-04-29T08:24:38.307Z,98794.97
2023-04-29T08:27:10.135Z,98792.13
2023-04-29T08:29:47.224Z,98800.81
2023-04-29T08:32:18.968Z,98807.41
2023-04-29T08:34:50.852Z,98802.88
2023-04-29T08:37:22.777Z,98800.47
2023-04-29T08:39:54.558Z,98809.41
2023-04-29T08:42:37.008Z,98796.94
2023-04-29T08:45:15.823Z,98801.25
2023-04-29T08:47:49.659Z,98803.50
2023-04-29T08:50:24.057Z,98798.91
2023-04-29T08:52:56.229Z,98810.16
2023-04-29T08:55:27.988Z,98808.56
2023-04-29T08:58:03.059Z,98824.34
2023-04-29T09:00:35.901Z,98822.16
2023-04-29T09:03:25.441Z,98831.88
2023-04-29T09:06:00.982Z,98825.09
2023-04-29T09:08:33.498Z,98840.16
2023-04-29T09:11:11.291Z,98836.06
2023-04-29T09:13:44.123Z,98841.97
2023-04-29T09:16:16.021Z,98840.53
2023-04-29T09:18:49.054Z,98842.03
2023-04-29T09:21:27.366Z,98843.78
2023-04-29T09:24:01.650Z,98842.31
2023-04-29T09:26:43.356Z,98843.63
2023-04-29T09:29:16.490Z,98843.41
2023-04-29T09:31:49.537Z,98842.09
2023-04-29T09:34:39.677Z,98847.56
2023-04-29T09:37:28.111Z,98852.34
2023-04-29T09:40:00.156Z,98850.50
2023-04-29T09:42:43.724Z,98852.88
2023-04-29T09:45:37.922Z,98859.16
2023-04-29T09:48:13.627Z,98857.06
2023-04-29T09:51:02.237Z,98858.50
2023-04-29T09:53:37.996Z,98864.31
2023-04-29T09:56:09.882Z,98857.47
2023-04-29T09:58:41.595Z,98859.03
2023-04-29T10:01:14.439Z,98859.38
2023-04-29T10:03:49.195Z,98862.28
2023-04-29T10:06:21.292Z,98858.69
2023-04-29T10:08:56.238Z,98859.38
2023-04-29T10:11:31.538Z,98849.84
2023-04-29T10:14:05.594Z,98845.47
2023-04-29T10:17:08.601Z,98840.31
2023-04-29T10:19:57.333Z,98858.56
2023-04-29T10:22:47.920Z,98850.63
2023-04-29T10:25:21.825Z,98851.63
2023-04-29T10:27:59.507Z,98851.16
2023-04-29T10:30:32.621Z,98857.63
2023-04-29T10:33:06.481Z,98858.28
2023-04-29T10:35:38.673Z,98879.59
2023-04-29T10:38:41.224Z,98880.47
2023-04-29T10:41:26.847Z,98878.91
2023-04-29T10:44:00.635Z,98888.31
2023-04-29T10:46:33.702Z,98891.38
2023-04-29T10:49:07.129Z,98887.41
2023-04-29T10:51:45.901Z,98883.38
2023-04-29T10:54:21.211Z,98885.06
2023-04-29T10:56:54.347Z,98888.41
2023-04-29T10:59:46.470Z,98893.91
2023-04-29T11:02:20.074Z,98888.69
2023-04-29T11:05:12.139Z,98888.44
2023-04-29T11:07:50.379Z,98889.50
2023-04-29T11:10:39.760Z,98890.31
2023-04-29T11:13:29.450Z,98893.59
2023-04-29T11:16:09.349Z,98888.09
2023-04-29T11:19:09.642Z,98903.69
2023-04-29T11:21:42.773Z,98909.47
2023-04-29T11:24:16.353Z,98912.44
2023-04-29T11:26:49.139Z,98905.19
2023-04-29T11:29:22.685Z,98912.88
2023-04-29T11:32:02.215Z,98909.78
2023-04-29T11:34:37.172Z,98911.28
2023-04-29T11:37:09.586Z,98906.91
2023-04-29T11:39:52.357Z,98907.13
2023-04-29T11:42:30.916Z,98913.72
2023-04-29T11:45:02.687Z,98909.19
2023-04-29T11:47:34.462Z,98909.59
2023-04-29T11:50:08.928Z,98901.06
2023-04-29T11:52:41.704Z,98904.25
2023-04-29T11:55:14.657Z,98904.75
2023-04-29T11:57:49.924Z,98913.44
2023-04-29T12:00:24.750Z,98907.34
2023-04-29T12:02:56.582Z,98912.13
2023-04-29T12:05:28.557Z,98909.25
2023-04-29T12:08:00.507Z,98908.81
2023-04-29T12:10:32.637Z,98905.09
2023-04-29T12:13:04.609Z,98915.59
2023-04-29T12:15:37.407Z,98918.94
2023-04-29T12:18:12.266Z,98915.00
2023-04-29T12:20:45.103Z,98915.81
2023-04-29T12:23:19.703Z,98912.31
2023-04-29T12:25:53.814Z,98913.19
2023-04-29T12:28:26.273Z,98911.31
2023-04-29T12:30:59.696Z,98918.03
2023-04-29T12:33:31.541Z,98908.41
2023-04-29T12:36:03.665Z,98915.34
2023-04-29T12:38:43.764Z,98919.34
2023-04-29T12:41:18.683Z,98927.13
2023-04-29T12:43:51.427Z,98922.00
2023-04-29T12:46:23.748Z,98915.16
2023-04-29T12:48:55.650Z,98911.44
2023-04-29T12:51:27.477Z,98926.31
2023-04-29T12:54:01.946Z,98927.56
2023-04-29T12:56:34.073Z,98922.97
2023-04-29T12:59:13.318Z,98923.59
2023-04-29T13:01:45.596Z,98922.72
2023-04-29T13:04:17.910Z,98927.56
2023-04-29T13:06:54.257Z,98925.09
2023-04-29T13:09:29.211Z,98931.94
2023-04-29T13:12:03.314Z,98930.75
2023-04-29T13:14:35.096Z,98929.09
2023-04-29T13:17:07.320Z,98935.69
2023-04-29T13:19:48.150Z,98929.78
2023-04-29T13:22:23.145Z,98944.97
2023-04-29T13:24:55.300Z,98947.94
2023-04-29T13:27:27.379Z,98946.97
2023-04-29T13:29:59.134Z,98943.13
2023-04-29T13:32:43.196Z,98943.00
2023-04-29T13:35:16.824Z,98942.03
2023-04-29T13:37:49.411Z,98942.91
2023-04-29T13:40:21.642Z,98949.94
2023-04-29T13:43:02.555Z,98956.31
2023-04-29T13:45:48.348Z,98952.63
2023-04-29T13:48:44.253Z,98956.31
2023-04-29T13:59:40.010Z,98971.47
2023-04-29T14:02:23.248Z,98976.09
2023-04-29T14:04:57.212Z,98971.41
2023-04-29T14:07:29.233Z,98966.63
2023-04-29T14:10:01.088Z,98980.97
2023-04-29T14:12:32.856Z,98985.41
2023-04-29T14:15:05.793Z,98979.69
2023-04-29T14:17:37.568Z,98985.03
2023-04-29T14:20:09.694Z,98992.81
2023-04-29T14:22:41.459Z,98989.44
2023-04-29T14:25:13.555Z,98997.53
2023-04-29T14:27:45.371Z,98995.03
2023-04-29T14:30:17.115Z,98993.16
2023-04-29T14:32:48.941Z,98996.44
2023-04-29T14:35:20.643Z,98995.63
2023-04-29T14:37:52.628Z,99000.59
2023-04-29T14:40:24.377Z,99001.22
2023-04-29T14:42:56.179Z,99015.25
2023-04-29T14:45:28.261Z,99015.41
2023-04-29T14:48:00.081Z,99021.56
2023-04-29T14:50:31.855Z,99017.81
2023-04-29T14:53:04.282Z,99014.09
2023-04-29T14:55:35.995Z,99010.50
2023-04-29T14:58:09.433Z,99012.50
2023-04-29T15:00:42.558Z,99028.44
2023-04-29T15:03:22.137Z,99019.91
2023-04-29T15:05:55.146Z,99016.53
2023-04-29T15:08:27.614Z,99033.25
2023-04-29T15:10:59.436Z,99032.50
2023-04-29T15:13:32.134Z,99024.41
2023-04-29T15:16:07.417Z,99030.84
2023-04-29T15:18:39.313Z,99048.13
2023-04-29T15:21:11.456Z,99051.19
2023-04-29T15:23:43.404Z,99052.00
2023-04-29T15:26:15.126Z,99068.34
2023-04-29T15:28:46.955Z,99055.22
2023-04-29T15:31:18.758Z,99053.16
2023-04-29T15:33:55.660Z,99059.63
2023-04-29T15:36:32.693Z,99053.22
2023-04-29T15:39:04.670Z,99056.34
2023-04-29T15:41:37.438Z,99060.19
2023-04-29T15:44:09.126Z,99066.38
2023-04-29T15:46:43.663Z,99077.88
2023-04-29T15:49:15.252Z,99082.06
2023-04-29T15:51:46.957Z,99081.47
2023-04-29T15:54:18.932Z,99077.38
2023-04-29T15:56:50.936Z,99088.81
2023-04-29T15:59:22.691Z,99096.59
2023-04-29T16:01:54.406Z,99094.97
2023-04-29T16:04:26.229Z,99108.59
2023-04-29T16:06:58.251Z,99107.59
2023-04-29T16:09:30.037Z,99110.94
2023-04-29T16:12:02.285Z,99110.16
2023-04-29T16:14:34.154Z,99120.84
2023-04-29T16:17:06.194Z,99120.44
2023-04-29T16:19:38.108Z,99125.56
2023-04-29T16:22:09.812Z,99136.06
2023-04-29T16:24:41.752Z,99126.84
2023-04-29T16:27:13.876Z,99134.47
2023-04-29T16:29:45.721Z,99140.81
2023-04-29T16:32:17.763Z,99140.41
2023-04-29T16:34:49.547Z,99134.84
2023-04-29T16:37:22.460Z,99143.06
2023-04-29T16:39:54.432Z,99147.59
2023-04-29T16:42:26.445Z,99171.94
2023-04-29T16:44:58.301Z,99171.53
2023-04-29T16:47:30.083Z,99180.75
2023-04-29T16:50:01.891Z,99174.16
2023-04-29T16:52:34.189Z,99185.22
2023-04-29T16:55:11.068Z,99184.78
2023-04-29T16:57:43.027Z,99189.94
2023-04-29T17:00:14.887Z,99196.69
2023-04-29T17:02:47.972Z,99188.69
2023-04-29T17:05:21.653Z,99197.88
2023-04-29T17:07:54.430Z,99204.63
2023-04-29T17:10:27.068Z,99216.50
2023-04-29T17:12:58.945Z,99226.91
2023-04-29T17:15:31.068Z,99233.19
2023-04-29T17:18:03.127Z,99243.72
2023-04-29T17:20:35.281Z,99238.09
2023-04-29T17:23:07.093Z,99255.75
2023-04-29T17:25:39.008Z,99265.69
2023-04-29T17:28:11.147Z,99258.25
2023-04-29T17:30:42.990Z,99268.63
2023-04-29T17:33:14.870Z,99272.47
2023-04-29T17:35:46.921Z,99269.50
2023-04-29T17:38:18.648Z,99284.16
2023-04-29T17:40:50.466Z,99287.38
2023-04-29T17:43:22.728Z,99292.00
2023-04-29T17:45:58.636Z,99292.31
2023-04-29T17:48:32.276Z,99299.19
2023-04-29T17:51:04.459Z,99301.97
2023-04-29T17:53:36.182Z,99308.66
2023-04-29T17:56:07.996Z,99310.59
2023-04-29T17:58:39.804Z,99314.44
2023-04-29T18:01:11.617Z,99316.28
2023-04-29T18:03:43.763Z,99308.44
2023-04-29T18:06:15.746Z,99317.72
2023-04-29T18:08:47.516Z,99310.78
2023-04-29T18:11:19.352Z,99318.59
2023-04-29T18:13:53.836Z,99326.34
2023-04-29T18:16:27.353Z,99329.47
2023-04-29T18:18:59.189Z,99335.69
2023-04-29T18:21:31.922Z,99339.31
2023-04-29T18:24:04.211Z,99341.53
2023-04-29T18:26:36.007Z,99344.06
2023-04-29T18:29:07.876Z,99338.56
2023-04-29T18:31:39.697Z,99337.28
2023-04-29T18:34:11.415Z,99339.50
2023-04-29T18:36:43.616Z,99347.16
2023-04-29T18:39:15.582Z,99351.00
2023-04-29T18:41:48.645Z,99353.03
2023-04-29T18:44:20.530Z,99363.13
2023-04-29T18:46:53.184Z,99359.38
2023-04-29T18:49:25.056Z,99360.56
2023-04-29T18:51:56.900Z,99363.56
2023-04-29T18:54:28.650Z,99363.56
2023-04-29T18:57:03.927Z,99370.06
2023-04-29T18:59:38.036Z,99371.22
2023-04-29T19:02:09.818Z,99369.56
2023-04-29T19:04:41.768Z,99380.16
2023-04-29T19:07:13.829Z,99381.16
2023-04-29T19:09:45.642Z,99380.81
2023-04-29T19:12:19.448Z,99389.22
2023-04-29T19:14:51.207Z,99388.06
2023-04-29T19:17:23.165Z,99385.22
2023-04-29T19:19:55.065Z,99390.16
2023-04-29T19:22:28.012Z,99387.97
2023-04-29T19:24:59.763Z,99394.75
2023-04-29T19:27:31.516Z,99405.16
2023-04-29T19:30:03.950Z,99401.22
2023-04-29T19:32:35.827Z,99411.81
2023-04-29T19:35:07.775Z,99417.59
2023-04-29T19:37:40.570Z,99414.56
2023-04-29T19:40:12.451Z,99413.75
2023-04-29T19:42:44.719Z,99416.06
2023-04-29T19:45:16.574Z,99415.69
2023-04-29T19:47:49.970Z,99416.34
2023-04-29T19:50:22.729Z,99417.97
2023-04-29T19:52:55.046Z,99418.44
2023-04-29T19:55:27.288Z,99412.31
2023-04-29T19:57:59.186Z,99416.16
2023-04-29T20:00:31.564Z,99411.22
2023-04-29T20:03:03.773Z,99408.09
2023-04-29T20:05:35.568Z,99409.09
2023-04-29T20:08:07.668Z,99404.47
2023-04-29T20:10:39.474Z,99407.63
2023-04-29T20:13:11.485Z,99404.19
2023-04-29T20:15:43.296Z,99408.28
2023-04-29T20:18:15.428Z,99413.41
2023-04-29T20:20:50.754Z,99418.16
2023-04-29T20:23:22.775Z,99421.91
2023-04-29T20:25:54.685Z,99426.22
2023-04-29T20:28:26.648Z,99424.09
2023-04-29T20:30:59.735Z,99428.09
2023-04-29T20:33:31.627Z,99422.72
2023-04-29T20:36:06.660Z,99426.16
2023-04-29T20:38:41.256Z,99424.34
2023-04-29T20:41:17.428Z,99432.66
2023-04-29T20:43:49.194Z,99434.66
2023-04-29T20:46:23.565Z,99434.38
2023-04-29T20:48:57.094Z,99431.88
2023-04-29T20:51:29.539Z,99425.41
2023-04-29T20:54:01.375Z,99433.38
2023-04-29T20:56:35.939Z,99431.38
2023-04-29T20:59:07.759Z,99437.97
2023-04-29T21:01:39.553Z,99438.28
2023-04-29T21:04:11.585Z,99432.38
2023-04-29T21:06:43.692Z,99442.97
2023-04-29T21:09:16.222Z,99452.38
2023-04-29T21:11:48.295Z,99451.84
2023-04-29T21:14:20.254Z,99446.19
2023-04-29T21:16:52.457Z,99446.84
2023-04-29T21:19:24.610Z,99451.03
2023-04-29T21:21:56.527Z,99455.56
2023-04-29T21:24:28.746Z,99457.09
2023-04-29T21:27:00.587Z,99460.25
2023-04-29T21:29:34.674Z,99461.44
2023-04-29T21:32:07.848Z,99464.44
2023-04-29T21:34:39.694Z,99456.00
2023-04-29T21:37:12.425Z,99464.31
2023-04-29T21:39:44.245Z,99461.66
2023-04-29T21:42:21.193Z,99462.50
2023-04-29T21:44:59.122Z,99472.31
2023-04-29T21:47:31.050Z,99469.03
2023-04-29T21:50:02.894Z,99470.34
2023-04-29T21:52:35.322Z,99478.28
2023-04-29T21:55:07.379Z,99479.13
2023-04-29T22:00:33.422Z,99473.81
2023-04-29T22:03:10.256Z,99475.47
2023-04-29T22:05:42.260Z,99474.47
2023-04-29T22:08:14.113Z,99465.72
2023-04-29T22:10:46.047Z,99475.63
2023-04-29T22:13:17.902Z,99476.00
2023-04-29T22:15:50.900Z,99487.41
2023-04-29T22:18:22.698Z,99479.47
2023-04-29T22:20:54.421Z,99478.13
2023-04-29T22:23:26.227Z,99482.88
2023-04-29T22:25:58.234Z,99477.88
2023-04-29T22:28:30.053Z,99483.25
2023-04-29T22:31:01.885Z,99482.13
2023-04-29T22:33:35.020Z,99478.34
2023-04-29T22:36:09.910Z,99493.28
2023-04-29T22:38:41.711Z,99481.84
2023-04-29T22:41:14.177Z,99484.66
2023-04-29T22:43:46.143Z,99486.16
2023-04-29T22:46:18.090Z,99485.78
2023-04-29T22:48:49.985Z,99485.28
2023-04-29T22:51:21.897Z,99485.28
2023-04-29T22:53:53.632Z,99487.28
2023-04-29T22:56:25.450Z,99481.50
2023-04-29T22:58:57.309Z,99487.97
2023-04-29T23:01:29.194Z,99489.78
2023-04-29T23:04:01.027Z,99491.28
2023-04-29T23:06:35.992Z,99493.56
2023-04-29T23:09:11.819Z,99488.63
2023-04-29T23:11:43.678Z,99490.63
2023-04-29T23:14:15.545Z,99496.91
2023-04-29T23:16:47.397Z,99498.56
2023-04-29T23:19:19.230Z,99492.28
2023-04-29T23:21:53.069Z,99493.09
2023-04-29T23:24:26.368Z,99501.88
2023-04-29T23:26:58.338Z,99501.22
2023-04-29T23:29:36.546Z,99493.28
2023-04-29T23:32:08.386Z,99503.69
2023-04-29T23:34:40.323Z,99500.38
2023-04-29T23:37:12.255Z,99501.22
2023-04-29T23:39:44.047Z,99505.84
2023-04-29T23:42:18.819Z,99507.50
2023-04-29T23:44:50.900Z,99503.03
2023-04-29T23:47:22.785Z,99504.16
2023-04-29T23:49:54.895Z,99509.75
2023-04-29T23:52:26.970Z,99507.41
2023-04-29T23:54:58.940Z,99506.41
2023-04-29T23:57:30.807Z,99507.59
